Time;durP1;ratioP1;P1;durP2;ratioP2;P2;SDS_P1;SDS_P2;PMS_P1;PMS_P2;Temp;Humidity;BMP_temperature;BMP_pressure;BME280_temperature;BME280_humidity;BME280_pressure;Samples;Min_cycle;Max_cycle;Signal;HPM_P1;HPM_P2
2022/06/12 00:00:59;;;;;;;11.93;5.88;;;12.70;99.90;;;;;;5056298;28;20548;-70
2022/06/12 00:03:27;;;;;;;13.40;6.18;;;12.70;99.90;;;;;;5049006;28;20041;-70
2022/06/12 00:05:55;;;;;;;9.43;7.15;;;12.70;99.90;;;;;;5054134;28;20119;-70
2022/06/12 00:08:21;;;;;;;30.98;8.48;;;12.70;99.90;;;;;;5050228;28;20037;-70
2022/06/12 00:10:49;;;;;;;14.90;7.28;;;12.70;99.90;;;;;;5062170;28;20111;-70
2022/06/12 00:13:17;;;;;;;;;;;12.70;99.90;;;;;;5055552;28;20456;-70
2022/06/12 00:15:43;;;;;;;17.80;7.28;;;12.60;99.90;;;;;;5066800;28;19924;-70
2022/06/12 00:18:09;;;;;;;15.50;7.22;;;12.60;99.90;;;;;;5069832;28;20036;-71
2022/06/12 00:20:35;;;;;;;13.85;7.35;;;12.60;99.90;;;;;;5060965;28;20036;-71
2022/06/12 00:23:07;;;;;;;18.10;8.15;;;12.60;99.90;;;;;;5049231;28;20401;-71
2022/06/12 00:25:33;;;;;;;16.70;7.95;;;12.60;99.90;;;;;;5051824;28;20507;-71
2022/06/12 00:27:58;;;;;;;21.95;8.63;;;12.50;99.90;;;;;;5057486;28;20134;-71
2022/06/12 00:30:25;;;;;;;18.17;7.85;;;12.60;99.90;;;;;;5058764;28;20071;-71
2022/06/12 00:32:54;;;;;;;26.23;8.38;;;12.50;99.90;;;;;;5062162;28;20048;-70
2022/06/12 00:35:33;;;;;;;14.93;6.35;;;12.50;99.90;;;;;;5053343;28;20045;-70
2022/06/12 00:37:59;;;;;;;22.08;7.68;;;12.50;99.90;;;;;;5049492;28;20041;-70
2022/06/12 00:40:25;;;;;;;22.83;8.23;;;12.50;99.90;;;;;;5053184;28;20048;-70
2022/06/12 00:42:58;;;;;;;21.67;7.57;;;12.40;99.90;;;;;;5063893;28;20124;-70
2022/06/12 00:45:46;;;;;;;20.80;7.68;;;12.40;99.90;;;;;;5050114;28;20049;-71
2022/06/12 00:48:18;;;;;;;;;;;12.30;99.90;;;;;;5052637;28;20083;-70
2022/06/12 00:50:54;;;;;;;21.00;8.73;;;12.30;99.90;;;;;;5052641;28;19921;-71
2022/06/12 00:53:25;;;;;;;13.75;7.13;;;12.20;99.90;;;;;;5058741;28;20131;-71
2022/06/12 00:56:00;;;;;;;12.75;6.70;;;12.20;99.90;;;;;;5050691;28;20048;-71
2022/06/12 00:58:29;;;;;;;16.48;7.05;;;12.20;99.90;;;;;;5053928;28;20049;-70
2022/06/12 01:00:55;;;;;;;16.08;7.10;;;12.20;99.90;;;;;;5056769;28;20032;-71
2022/06/12 01:03:22;;;;;;;23.45;8.02;;;12.10;99.90;;;;;;5059907;28;20047;-71
2022/06/12 01:08:34;;;;;;;15.63;7.30;;;12.10;99.90;;;;;;5062012;28;20107;-70
2022/06/12 01:11:06;;;;;;;14.90;8.87;;;12.10;99.90;;;;;;5054759;28;20084;-71
2022/06/12 01:13:42;;;;;;;29.17;8.00;;;12.00;99.90;;;;;;5059641;28;20060;-71
2022/06/12 01:16:14;;;;;;;18.05;7.47;;;12.10;99.90;;;;;;5053241;28;20056;-70
2022/06/12 01:18:49;;;;;;;24.92;7.68;;;12.00;99.90;;;;;;5068696;28;20052;-70
2022/06/12 01:21:34;;;;;;;18.30;7.88;;;12.00;99.90;;;;;;5052093;28;20040;-70
2022/06/12 01:24:10;;;;;;;22.70;8.73;;;12.00;99.90;;;;;;5055772;28;20037;-70
2022/06/12 01:26:49;;;;;;;17.83;8.63;;;12.00;99.90;;;;;;5068534;28;20052;-70
2022/06/12 01:29:29;;;;;;;16.90;8.38;;;12.00;99.90;;;;;;5058567;28;20064;-70
2022/06/12 01:32:07;;;;;;;18.05;7.13;;;12.00;99.90;;;;;;5062850;28;20150;-71
2022/06/12 01:34:40;;;;;;;;;;;12.00;99.90;;;;;;5050294;28;20061;-70
2022/06/12 01:37:14;;;;;;;24.98;8.48;;;11.90;99.90;;;;;;5052265;28;20683;-71
2022/06/12 01:40:06;;;;;;;24.92;8.50;;;11.90;99.90;;;;;;5056611;28;20044;-70
2022/06/12 01:42:58;;;;;;;20.42;8.95;;;11.90;99.90;;;;;;5061677;28;20524;-70
2022/06/12 01:45:50;;;;;;;17.90;8.15;;;11.90;99.90;;;;;;5051913;28;20119;-70
2022/06/12 01:48:25;;;;;;;22.48;8.52;;;11.90;99.90;;;;;;5054722;28;20070;-71
2022/06/12 01:50:59;;;;;;;21.55;8.95;;;11.80;99.90;;;;;;5064947;28;20056;-70
2022/06/12 01:53:40;;;;;;;17.35;7.85;;;11.80;99.90;;;;;;5052463;28;20053;-71
2022/06/12 01:56:21;;;;;;;24.00;9.43;;;11.80;99.90;;;;;;5050798;28;20506;-71
2022/06/12 01:58:56;;;;;;;21.92;9.43;;;11.80;99.90;;;;;;5047096;28;20053;-71
2022/06/12 02:01:33;;;;;;;18.13;7.68;;;11.80;99.90;;;;;;5054289;28;20056;-71
2022/06/12 02:04:20;;;;;;;18.65;8.52;;;11.80;99.90;;;;;;5050186;28;20490;-71
2022/06/12 02:07:02;;;;;;;18.35;9.85;;;11.80;99.90;;;;;;5047717;28;20086;-71
2022/06/12 02:09:59;;;;;;;15.35;7.57;;;11.80;99.90;;;;;;5051389;28;20050;-71
2022/06/12 02:15:16;;;;;;;16.08;8.40;;;11.70;99.90;;;;;;5052402;28;20059;-71
2022/06/12 02:17:51;;;;;;;22.73;7.75;;;11.70;99.90;;;;;;5051464;28;20044;-71
2022/06/12 02:20:21;;;;;;;21.70;9.00;;;11.70;99.90;;;;;;5030631;28;20045;-71
2022/06/12 02:22:49;;;;;;;23.38;8.05;;;11.70;99.90;;;;;;5048337;28;20045;-71
2022/06/12 02:25:25;;;;;;;19.80;7.95;;;11.70;99.90;;;;;;5060061;28;20099;-71
2022/06/12 02:28:09;;;;;;;22.98;8.35;;;11.70;99.90;;;;;;5064722;28;20111;-71
2022/06/12 02:30:38;;;;;;;16.05;8.18;;;11.70;99.90;;;;;;5056760;28;20037;-71
2022/06/12 02:33:13;;;;;;;13.00;6.90;;;11.60;99.90;;;;;;5054689;28;20051;-71
2022/06/12 02:35:50;;;;;;;17.05;7.30;;;11.60;99.90;;;;;;5059621;28;20189;-71
2022/06/12 02:38:45;;;;;;;18.23;8.90;;;11.60;99.90;;;;;;5047627;28;20047;-71
2022/06/12 02:41:18;;;;;;;24.55;8.38;;;11.60;99.90;;;;;;5025774;28;20150;-71
2022/06/12 02:43:45;;;;;;;18.13;7.88;;;11.50;99.90;;;;;;5049117;28;20036;-71
2022/06/12 02:46:19;;;;;;;12.52;8.27;;;11.50;99.90;;;;;;5047600;28;20051;-71
2022/06/12 02:48:45;;;;;;;16.75;7.15;;;11.50;99.90;;;;;;5052403;28;20128;-71
2022/06/12 02:51:36;;;;;;;14.10;6.88;;;11.50;99.90;;;;;;5059884;28;20139;-71
2022/06/12 02:54:04;;;;;;;23.20;8.63;;;11.50;99.90;;;;;;5051780;28;20565;-71
2022/06/12 02:56:37;;;;;;;;;;;11.50;99.90;;;;;;5050486;28;20053;-70
2022/06/12 02:59:26;;;;;;;24.42;7.35;;;11.40;99.90;;;;;;5057314;28;19936;-71
2022/06/12 03:02:09;;;;;;;13.40;7.82;;;11.40;99.90;;;;;;5063622;28;20064;-71
2022/06/12 03:04:55;;;;;;;16.40;7.32;;;11.40;99.90;;;;;;5048042;28;20037;-70
2022/06/12 03:07:21;;;;;;;20.20;6.85;;;11.40;99.90;;;;;;5053965;28;20915;-70
2022/06/12 03:09:47;;;;;;;19.27;7.57;;;11.40;99.90;;;;;;5049376;28;20049;-70
2022/06/12 03:12:13;;;;;;;14.63;7.65;;;11.40;99.90;;;;;;5051380;28;20044;-70
2022/06/12 03:14:39;;;;;;;12.43;6.75;;;11.40;99.90;;;;;;5066503;28;20063;-71
2022/06/12 03:17:05;;;;;;;14.10;7.78;;;11.40;99.90;;;;;;5060857;28;20036;-71
2022/06/12 03:19:42;;;;;;;18.90;8.93;;;11.40;99.90;;;;;;5066787;28;20424;-72
2022/06/12 03:22:34;;;;;;;18.92;7.07;;;11.40;99.90;;;;;;5050492;28;20070;-71
2022/06/12 03:25:22;;;;;;;18.33;7.43;;;11.40;99.90;;;;;;5047689;28;20047;-71
2022/06/12 03:28:03;;;;;;;18.63;8.90;;;11.30;99.90;;;;;;5052585;28;20056;-73
2022/06/12 03:30:42;;;;;;;20.75;8.90;;;11.40;99.90;;;;;;5053192;28;20052;-72
2022/06/12 03:33:32;;;;;;;20.02;9.55;;;11.40;99.90;;;;;;5057739;28;20124;-72
2022/06/12 03:36:18;;;;;;;20.65;9.27;;;11.40;99.90;;;;;;5061410;28;20125;-73
2022/06/12 03:38:54;;;;;;;18.25;8.80;;;11.40;99.90;;;;;;5053073;28;20048;-72
2022/06/12 03:41:33;;;;;;;14.73;8.55;;;11.40;99.90;;;;;;5059386;28;20041;-72
2022/06/12 03:44:03;;;;;;;23.30;8.43;;;11.50;99.90;;;;;;5055875;28;20513;-72
2022/06/12 03:46:56;;;;;;;18.23;9.55;;;11.50;99.90;;;;;;5057636;28;20077;-72
2022/06/12 03:49:26;;;;;;;17.45;8.73;;;11.60;99.90;;;;;;5056299;28;20132;-72
2022/06/12 03:52:15;;;;;;;31.17;10.57;;;11.50;99.90;;;;;;5063721;28;20084;-72
2022/06/12 03:55:08;;;;;;;25.92;8.90;;;11.60;99.90;;;;;;5051310;28;20045;-75
2022/06/12 03:57:51;;;;;;;22.20;8.27;;;11.60;99.90;;;;;;5052024;28;20052;-74
2022/06/12 04:00:27;;;;;;;19.95;7.75;;;11.60;99.90;;;;;;5066044;28;20517;-74
2022/06/12 04:03:08;;;;;;;19.33;8.85;;;11.70;99.90;;;;;;5054102;28;20057;-74
2022/06/12 04:05:43;;;;;;;21.35;8.85;;;11.70;99.90;;;;;;5058139;28;20048;-75
2022/06/12 04:08:16;;;;;;;17.13;8.88;;;11.80;99.90;;;;;;5055342;28;20052;-73
2022/06/12 04:10:44;;;;;;;16.02;7.95;;;11.90;99.90;;;;;;5065531;28;20620;-73
2022/06/12 04:13:14;;;;;;;21.88;8.77;;;11.90;99.90;;;;;;5055944;28;20469;-74
2022/06/12 04:15:49;;;;;;;18.70;8.60;;;12.00;99.90;;;;;;5055275;28;20041;-74
2022/06/12 04:18:15;;;;;;;26.08;10.02;;;12.00;99.90;;;;;;5053250;28;20513;-74
2022/06/12 04:20:49;;;;;;;12.93;7.85;;;12.10;99.90;;;;;;5055277;28;20098;-74
2022/06/12 04:23:35;;;;;;;17.70;7.57;;;12.20;99.90;;;;;;5064524;28;20091;-75
2022/06/12 04:26:09;;;;;;;17.42;8.30;;;12.20;99.90;;;;;;5051330;28;20053;-74
2022/06/12 04:28:39;;;;;;;32.92;9.45;;;12.20;99.90;;;;;;5064478;28;20515;-74
2022/06/12 04:31:10;;;;;;;15.45;8.15;;;12.30;99.90;;;;;;5060198;28;20095;-74
2022/06/12 04:33:52;;;;;;;21.17;7.53;;;12.30;99.90;;;;;;5066607;28;20060;-74
2022/06/12 04:36:18;;;;;;;16.45;8.18;;;12.40;99.90;;;;;;5053281;28;20110;-75
2022/06/12 04:38:44;;;;;;;17.10;7.93;;;12.40;99.90;;;;;;5052952;28;20482;-75
2022/06/12 04:41:12;;;;;;;16.45;8.70;;;12.40;99.90;;;;;;5056925;28;20120;-75
2022/06/12 04:43:39;;;;;;;19.83;9.15;;;12.50;99.90;;;;;;5061445;28;20089;-76
2022/06/12 04:46:05;;;;;;;19.63;9.38;;;12.50;99.90;;;;;;5059818;28;20592;-75
2022/06/12 04:48:38;;;;;;;15.27;7.30;;;12.50;99.90;;;;;;5054192;28;20128;-77
2022/06/12 04:51:05;;;;;;;24.42;10.13;;;12.60;99.90;;;;;;5058176;28;20119;-76
2022/06/12 04:53:32;;;;;;;18.60;8.13;;;12.60;99.90;;;;;;5053695;28;20127;-76
2022/06/12 04:55:58;;;;;;;18.35;8.70;;;12.70;99.90;;;;;;5058355;28;20094;-75
2022/06/12 04:58:23;;;;;;;18.92;8.55;;;12.70;99.90;;;;;;5058730;28;20044;-76
2022/06/12 05:00:49;;;;;;;17.02;8.82;;;12.80;99.90;;;;;;5057916;28;20080;-75
2022/06/12 05:03:16;;;;;;;25.65;9.00;;;12.90;99.90;;;;;;5059819;28;20132;-76
2022/06/12 05:05:42;;;;;;;19.13;8.55;;;12.90;99.90;;;;;;5067997;28;20052;-75
2022/06/12 05:08:08;;;;;;;14.50;7.80;;;12.90;99.90;;;;;;5052701;28;20106;-75
2022/06/12 05:10:35;;;;;;;21.42;8.52;;;13.00;99.90;;;;;;5058761;28;20424;-76
2022/06/12 05:13:01;;;;;;;24.15;8.80;;;13.10;99.90;;;;;;5054091;28;20080;-76
2022/06/12 05:15:26;;;;;;;24.17;8.10;;;13.10;99.90;;;;;;5055092;28;20122;-75
2022/06/12 05:17:52;;;;;;;28.90;8.55;;;13.20;99.90;;;;;;5063701;28;20425;-75
2022/06/12 05:20:22;;;;;;;22.08;9.23;;;13.20;99.90;;;;;;5059631;28;20048;-75
2022/06/12 05:22:48;;;;;;;26.48;9.48;;;13.30;99.90;;;;;;5059045;28;20048;-75
2022/06/12 05:25:15;;;;;;;24.65;8.70;;;13.40;99.90;;;;;;5058299;28;20052;-75
2022/06/12 05:27:42;;;;;;;24.58;9.32;;;13.40;99.90;;;;;;5051424;28;20134;-75
2022/06/12 05:30:12;;;;;;;18.95;9.05;;;13.50;99.90;;;;;;5054390;28;20128;-75
2022/06/12 05:32:38;;;;;;;13.45;7.68;;;13.50;99.90;;;;;;5056412;28;20440;-75
2022/06/12 05:35:04;;;;;;;30.73;9.10;;;13.60;99.90;;;;;;5054566;28;20051;-75
2022/06/12 05:37:30;;;;;;;20.73;8.98;;;13.60;99.90;;;;;;5054698;28;20124;-75
2022/06/12 05:39:56;;;;;;;21.40;9.45;;;13.70;99.90;;;;;;5058576;28;20167;-76
2022/06/12 05:42:22;;;;;;;24.42;7.85;;;13.80;99.90;;;;;;5065394;28;20047;-75
2022/06/12 05:44:48;;;;;;;24.10;8.55;;;13.90;99.90;;;;;;5055613;28;20059;-78
2022/06/12 05:47:14;;;;;;;20.95;8.85;;;14.10;99.90;;;;;;5064536;28;20056;-78
2022/06/12 05:49:39;;;;;;;28.48;10.30;;;14.30;99.90;;;;;;5051602;28;20036;-78
2022/06/12 05:52:05;;;;;;;28.13;9.10;;;14.40;99.90;;;;;;5051785;28;20405;-77
2022/06/12 05:54:31;;;;;;;17.60;8.63;;;14.60;99.90;;;;;;5052088;28;20501;-76
2022/06/12 05:56:57;;;;;;;25.05;9.52;;;14.70;99.90;;;;;;5051994;28;20070;-77
2022/06/12 05:59:23;;;;;;;27.52;8.07;;;14.80;99.90;;;;;;5052526;28;20063;-76
2022/06/12 06:01:49;;;;;;;22.65;8.90;;;14.90;99.90;;;;;;5053787;28;20048;-76
2022/06/12 06:04:14;;;;;;;21.58;7.82;;;15.00;99.90;;;;;;5071655;28;20480;-76
2022/06/12 06:06:48;;;;;;;26.08;7.57;;;15.20;99.90;;;;;;5059183;28;20123;-76
2022/06/12 06:09:13;;;;;;;26.83;8.70;;;15.30;99.90;;;;;;5056049;28;20418;-75
2022/06/12 06:11:40;;;;;;;21.05;7.28;;;15.50;99.90;;;;;;5056665;28;20044;-76
2022/06/12 06:14:07;;;;;;;31.08;9.65;;;15.60;99.90;;;;;;5060444;28;20044;-75
2022/06/12 06:16:36;;;;;;;40.80;9.90;;;15.80;99.90;;;;;;5060430;28;20049;-75
2022/06/12 06:19:03;;;;;;;33.13;9.63;;;15.90;99.90;;;;;;5055717;28;20076;-74
2022/06/12 06:21:29;;;;;;;19.10;7.20;;;16.00;99.90;;;;;;5050861;28;20147;-73
2022/06/12 06:23:55;;;;;;;27.95;8.25;;;16.20;99.90;;;;;;5063129;28;20574;-75
2022/06/12 06:26:21;;;;;;;23.13;8.68;;;16.30;99.90;;;;;;5060536;28;20072;-74
2022/06/12 06:28:50;;;;;;;32.78;8.48;;;16.40;99.90;;;;;;5060920;28;20083;-74
2022/06/12 06:31:16;;;;;;;29.38;8.43;;;16.70;99.90;;;;;;5048276;28;20114;-74
2022/06/12 06:33:42;;;;;;;21.38;8.57;;;16.80;99.90;;;;;;5047391;28;20120;-74
2022/06/12 06:36:10;;;;;;;24.38;7.95;;;17.00;99.90;;;;;;5047973;28;20129;-74
2022/06/12 06:38:35;;;;;;;;;;;17.20;99.90;;;;;;5048804;28;20139;-74
2022/06/12 06:41:01;;;;;;;26.42;7.65;;;17.30;99.90;;;;;;5047761;28;20019;-74
2022/06/12 06:43:27;;;;;;;28.20;8.50;;;17.50;99.90;;;;;;5048751;28;20070;-74
2022/06/12 06:48:38;;;;;;;18.80;8.40;;;17.70;99.90;;;;;;5047413;28;20505;-73
2022/06/12 06:51:03;;;;;;;25.67;8.27;;;17.80;99.90;;;;;;5049592;28;20044;-73
2022/06/12 06:53:29;;;;;;;28.60;9.07;;;18.00;99.90;;;;;;5038832;28;20508;-74
2022/06/12 06:55:55;;;;;;;34.03;9.65;;;18.20;99.90;;;;;;5056592;28;20520;-74
2022/06/12 06:58:24;;;;;;;29.85;9.30;;;18.30;99.90;;;;;;5054767;28;20055;-74
2022/06/12 07:00:50;;;;;;;27.08;9.68;;;18.50;99.90;;;;;;5058591;28;20123;-74
2022/06/12 07:03:16;;;;;;;28.50;8.88;;;18.70;99.90;;;;;;5054667;28;20040;-74
2022/06/12 07:05:44;;;;;;;24.75;8.18;;;19.00;99.90;;;;;;5056057;28;20052;-74
2022/06/12 07:08:10;;;;;;;;;;;19.20;99.90;;;;;;5061103;28;20098;-73
2022/06/12 07:10:36;;;;;;;24.17;8.25;;;19.30;99.90;;;;;;5059844;28;19921;-72
2022/06/12 07:13:03;;;;;;;24.40;7.72;;;19.60;99.90;;;;;;5055166;28;20051;-71
2022/06/12 07:15:30;;;;;;;24.42;9.43;;;19.70;99.90;;;;;;5062578;28;20102;-72
2022/06/12 07:17:57;;;;;;;36.42;8.45;;;19.80;99.90;;;;;;5055424;28;20835;-74
2022/06/12 07:20:28;;;;;;;28.58;9.23;;;19.90;99.90;;;;;;5064112;28;20702;-72
2022/06/12 07:22:54;;;;;;;23.33;8.20;;;20.00;99.90;;;;;;5063247;28;20045;-72
2022/06/12 07:25:20;;;;;;;26.27;9.15;;;20.20;99.90;;;;;;5051170;28;20054;-72
2022/06/12 07:27:47;;;;;;;33.45;8.85;;;20.40;99.90;;;;;;5068128;28;20117;-72
2022/06/12 07:30:19;;;;;;;30.27;10.52;;;20.50;99.90;;;;;;5060382;28;20052;-72
2022/06/12 07:32:46;;;;;;;19.50;8.23;;;20.70;99.90;;;;;;5056002;28;20068;-72
2022/06/12 07:35:13;;;;;;;28.13;9.98;;;21.00;99.90;;;;;;5058238;28;20047;-72
2022/06/12 07:37:39;;;;;;;26.95;8.57;;;21.10;99.90;;;;;;5061844;28;20059;-71
2022/06/12 07:40:08;;;;;;;26.42;8.50;;;21.50;99.90;;;;;;5066228;28;20040;-71
2022/06/12 07:42:34;;;;;;;34.50;10.13;;;21.70;99.90;;;;;;5068047;28;20040;-72
2022/06/12 07:44:59;;;;;;;32.75;9.80;;;21.70;99.90;;;;;;5064622;28;20032;-71
2022/06/12 07:47:25;;;;;;;20.35;8.38;;;21.80;99.90;;;;;;5050235;28;20075;-70
2022/06/12 07:49:51;;;;;;;19.48;8.90;;;22.00;99.90;;;;;;5063394;28;20040;-71
2022/06/12 07:52:17;;;;;;;30.17;9.05;;;22.00;99.90;;;;;;5062187;28;20060;-71
2022/06/12 07:54:43;;;;;;;25.73;8.68;;;22.20;99.90;;;;;;5052867;28;20087;-74
2022/06/12 07:57:09;;;;;;;25.20;8.85;;;22.30;99.90;;;;;;5054720;28;20069;-74
2022/06/12 07:59:37;;;;;;;22.92;8.30;;;22.40;99.90;;;;;;5058347;28;20044;-74
2022/06/12 08:02:04;;;;;;;23.55;8.00;;;22.60;99.90;;;;;;5065579;28;20060;-72
2022/06/12 08:04:29;;;;;;;35.13;10.02;;;22.70;99.90;;;;;;5057976;28;20461;-71
2022/06/12 08:06:55;;;;;;;31.73;9.32;;;22.70;99.90;;;;;;5068895;28;20112;-72
2022/06/12 08:09:21;;;;;;;27.65;9.10;;;22.80;99.90;;;;;;5068658;28;20044;-71
2022/06/12 08:11:49;;;;;;;26.00;8.68;;;22.90;99.90;;;;;;5057753;28;20045;-71
2022/06/12 08:14:15;;;;;;;29.05;10.05;;;22.80;99.90;;;;;;5066634;28;20056;-71
2022/06/12 08:16:42;;;;;;;27.35;8.07;;;22.90;99.90;;;;;;5067682;28;20127;-72
2022/06/12 08:20:24;;;;;;;22.30;7.40;;;23.10;99.90;;;;;;5054911;28;20043;-72
2022/06/12 08:21:56;;;;;;;30.25;9.23;;;23.20;99.90;;;;;;5061872;28;20045;-72
2022/06/12 08:24:21;;;;;;;19.23;8.82;;;23.20;99.90;;;;;;5063491;28;20051;-71
2022/06/12 08:26:47;;;;;;;19.88;8.80;;;23.30;99.90;;;;;;5063185;28;20049;-72
2022/06/12 08:29:14;;;;;;;22.20;8.30;;;23.40;99.90;;;;;;5063298;28;20091;-72
2022/06/12 08:31:47;;;;;;;25.70;9.35;;;23.40;99.90;;;;;;5065250;28;20048;-71
2022/06/12 08:34:23;;;;;;;23.02;8.52;;;23.40;99.90;;;;;;5064209;28;20255;-72
2022/06/12 08:36:52;;;;;;;21.73;8.45;;;23.30;99.90;;;;;;5066623;28;20111;-73
2022/06/12 08:39:19;;;;;;;33.58;8.00;;;23.40;99.90;;;;;;5068011;28;20067;-71
2022/06/12 08:42:02;;;;;;;18.80;8.85;;;23.50;99.90;;;;;;5062590;28;20097;-72
2022/06/12 08:44:40;;;;;;;31.60;9.32;;;23.60;97.50;;;;;;5061892;28;20120;-72
2022/06/12 08:47:18;;;;;;;20.55;7.50;;;23.70;97.00;;;;;;5061432;28;20052;-72
2022/06/12 08:49:50;;;;;;;22.65;7.25;;;23.80;88.00;;;;;;5057888;28;20047;-72
2022/06/12 08:52:20;;;;;;;21.45;8.07;;;23.90;97.50;;;;;;5063103;28;20052;-73
2022/06/12 08:55:00;;;;;;;24.20;7.15;;;24.10;95.60;;;;;;5059446;28;20119;-72
2022/06/12 08:57:58;;;;;;;20.70;7.80;;;24.20;96.30;;;;;;5061808;28;20062;-72
2022/06/12 09:00:32;;;;;;;15.02;5.90;;;24.50;91.80;;;;;;5048525;28;20052;-72
2022/06/12 09:02:58;;;;;;;20.05;7.10;;;24.70;92.10;;;;;;5058267;28;20041;-72
2022/06/12 09:05:46;;;;;;;15.85;5.88;;;24.80;90.60;;;;;;5059687;28;20107;-72
2022/06/12 09:08:26;;;;;;;19.00;5.75;;;24.80;86.10;;;;;;5044148;28;20183;-72
2022/06/12 09:11:03;;;;;;;20.63;7.40;;;24.40;87.20;;;;;;5055308;28;20084;-71
2022/06/12 09:13:47;;;;;;;18.63;6.80;;;24.30;82.60;;;;;;5056485;28;20048;-71
2022/06/12 09:16:30;;;;;;;16.98;7.32;;;24.10;78.50;;;;;;5049598;28;20041;-70
2022/06/12 09:19:24;;;;;;;25.23;7.40;;;24.20;75.80;;;;;;5058443;28;20047;-72
2022/06/12 09:22:09;;;;;;;17.05;7.70;;;24.40;86.60;;;;;;5056470;28;20413;-71
2022/06/12 09:24:41;;;;;;;21.08;7.28;;;24.70;80.10;;;;;;5058373;28;20083;-72
2022/06/12 09:27:25;;;;;;;17.85;7.13;;;24.80;79.20;;;;;;5062648;28;20114;-72
2022/06/12 09:30:02;;;;;;;19.70;7.38;;;24.80;73.90;;;;;;5067427;28;20048;-72
2022/06/12 09:32:56;;;;;;;22.15;7.68;;;24.70;74.10;;;;;;5064998;28;21100;-72
2022/06/12 09:35:48;;;;;;;29.08;8.50;;;24.70;77.60;;;;;;5057313;28;20684;-72
2022/06/12 09:38:42;;;;;;;14.60;8.00;;;24.40;77.20;;;;;;5065243;28;20874;-72
2022/06/12 09:41:08;;;;;;;19.10;7.20;;;24.10;78.00;;;;;;5059612;28;20047;-72
2022/06/12 09:43:45;;;;;;;30.17;8.90;;;23.80;86.00;;;;;;5059883;28;20128;-72
2022/06/12 09:46:31;;;;;;;21.23;8.07;;;23.80;87.50;;;;;;5063554;28;20048;-74
2022/06/12 09:49:06;;;;;;;17.27;6.97;;;24.00;90.50;;;;;;5062704;28;20421;-72
2022/06/12 09:51:59;;;;;;;14.88;6.80;;;24.10;84.70;;;;;;5055865;28;20048;-72
2022/06/12 09:54:36;;;;;;;13.77;6.15;;;24.20;79.90;;;;;;5056719;28;20045;-73
2022/06/12 09:57:14;;;;;;;16.95;7.30;;;24.40;75.40;;;;;;5056898;28;20059;-72
2022/06/12 09:59:58;;;;;;;19.38;7.05;;;24.40;70.10;;;;;;5056654;28;20102;-73
2022/06/12 10:02:59;;;;;;;24.25;6.47;;;24.30;71.00;;;;;;5062758;28;20121;-73
2022/06/12 10:05:31;;;;;;;14.65;5.93;;;24.10;71.80;;;;;;4986027;28;20050;-73
2022/06/12 10:08:12;;;;;;;16.42;6.75;;;23.90;73.10;;;;;;5054682;28;20194;-73
2022/06/12 10:10:47;;;;;;;24.77;6.65;;;23.70;74.40;;;;;;5066177;28;20696;-72
2022/06/12 10:13:19;;;;;;;15.93;6.68;;;23.70;74.80;;;;;;5058537;28;20051;-72
2022/06/12 10:15:56;;;;;;;20.85;7.07;;;23.40;76.90;;;;;;5059657;28;20123;-73
2022/06/12 10:18:22;;;;;;;15.07;6.75;;;23.30;80.20;;;;;;5065137;28;20088;-72
2022/06/12 10:20:54;;;;;;;15.57;5.82;;;23.00;82.70;;;;;;5066341;28;20983;-72
2022/06/12 10:23:21;;;;;;;18.10;6.72;;;22.90;84.50;;;;;;5062058;28;20131;-73
2022/06/12 10:25:50;;;;;;;;;;;23.10;86.80;;;;;;5060683;28;20047;-73
2022/06/12 10:28:15;;;;;;;15.15;4.95;;;23.40;84.20;;;;;;5060835;28;19929;-72
2022/06/12 10:30:45;;;;;;;17.73;6.03;;;23.50;79.80;;;;;;5043021;28;20044;-72
2022/06/12 10:33:23;;;;;;;10.50;4.13;;;23.40;74.70;;;;;;5059135;28;20095;-73
2022/06/12 10:35:54;;;;;;;12.57;5.50;;;23.40;69.60;;;;;;5060901;28;20037;-72
2022/06/12 10:38:21;;;;;;;14.27;5.20;;;23.40;70.50;;;;;;5050624;28;20083;-71
2022/06/12 10:40:57;;;;;;;17.27;6.45;;;23.60;69.00;;;;;;5064080;28;20053;-72
2022/06/12 10:43:45;;;;;;;17.88;5.78;;;23.70;68.50;;;;;;5057426;28;20095;-72
2022/06/12 10:46:20;;;;;;;10.43;5.25;;;23.90;67.50;;;;;;5065788;28;20052;-72
2022/06/12 10:49:18;;;;;;;13.05;6.18;;;24.20;67.10;;;;;;5059724;28;20045;-73
2022/06/12 10:51:45;;;;;;;12.80;4.70;;;24.30;65.90;;;;;;5039815;28;20426;-73
2022/06/12 10:54:16;;;;;;;8.32;4.50;;;24.30;64.50;;;;;;5054324;28;20452;-72
2022/06/12 10:57:12;;;;;;;11.48;4.63;;;24.40;61.00;;;;;;5059408;28;20063;-72
2022/06/12 10:59:51;;;;;;;15.93;4.75;;;24.40;58.70;;;;;;5056934;28;20120;-72
2022/06/12 11:02:48;;;;;;;14.35;5.20;;;24.50;61.10;;;;;;5049017;28;20395;-73
2022/06/12 11:05:39;;;;;;;14.63;5.28;;;24.70;62.20;;;;;;5054956;28;20044;-73
2022/06/12 11:08:24;;;;;;;11.57;4.45;;;24.80;60.30;;;;;;5055945;28;20171;-73
2022/06/12 11:11:11;;;;;;;10.18;5.07;;;24.80;59.40;;;;;;5053969;28;20056;-73
2022/06/12 11:13:55;;;;;;;9.38;3.28;;;24.70;57.50;;;;;;5065425;28;20040;-74
2022/06/12 11:16:45;;;;;;;9.30;4.07;;;24.50;56.90;;;;;;5059317;28;20053;-71
2022/06/12 11:19:21;;;;;;;9.13;4.55;;;24.60;57.00;;;;;;5057194;28;20049;-77
2022/06/12 11:22:04;;;;;;;7.30;3.97;;;24.60;54.50;;;;;;5058421;28;20052;-74
2022/06/12 11:24:51;;;;;;;11.45;4.35;;;24.50;57.10;;;;;;5062152;28;20056;-73
2022/06/12 11:27:19;;;;;;;12.90;4.07;;;24.60;58.30;;;;;;5062751;28;20047;-74
2022/06/12 11:30:13;;;;;;;9.90;4.60;;;24.60;57.90;;;;;;5049967;28;20052;-74
2022/06/12 11:32:57;;;;;;;15.43;3.95;;;24.70;56.60;;;;;;5061739;28;20041;-74
2022/06/12 11:35:50;;;;;;;7.38;3.47;;;24.60;54.70;;;;;;5056173;28;20045;-74
2022/06/12 11:38:23;;;;;;;8.23;3.80;;;24.70;57.00;;;;;;5054204;28;20188;-74
2022/06/12 11:41:09;;;;;;;5.15;3.38;;;24.90;55.70;;;;;;5059703;28;20049;-74
2022/06/12 11:43:57;;;;;;;8.00;3.87;;;25.10;55.70;;;;;;5064622;28;20055;-74
2022/06/12 11:46:39;;;;;;;11.30;4.05;;;25.10;54.30;;;;;;5043176;28;20367;-74
2022/06/12 11:49:13;;;;;;;13.77;4.97;;;25.20;54.80;;;;;;5057060;28;20053;-74
2022/06/12 11:52:33;;;;;;;7.18;4.03;;;25.30;55.20;;;;;;5059288;28;20037;-74
2022/06/12 11:55:12;;;;;;;11.13;3.55;;;25.20;50.80;;;;;;5004041;28;20732;-75
2022/06/12 11:58:18;;;;;;;6.95;3.72;;;25.20;52.90;;;;;;5004990;28;20482;-74
2022/06/12 12:01:11;;;;;;;7.95;3.80;;;25.20;51.90;;;;;;5052929;28;20057;-74
2022/06/12 12:03:37;;;;;;;8.38;3.20;;;25.20;52.10;;;;;;5062444;28;20615;-74
2022/06/12 12:06:17;;;;;;;11.85;4.30;;;25.20;54.00;;;;;;5061094;28;20044;-74
2022/06/12 12:08:44;;;;;;;8.70;3.55;;;25.20;53.40;;;;;;5059781;28;20123;-74
2022/06/12 12:11:15;;;;;;;7.60;3.67;;;25.20;53.90;;;;;;5062096;28;20056;-74
2022/06/12 12:13:45;;;;;;;9.55;3.30;;;25.10;53.00;;;;;;5048803;28;20048;-74
2022/06/12 12:16:56;;;;;;;5.57;2.83;;;25.10;52.90;;;;;;5054934;28;20115;-75
2022/06/12 12:19:38;;;;;;;9.82;4.40;;;24.80;50.50;;;;;;5042151;28;20060;-75
2022/06/12 12:22:07;;;;;;;8.00;4.53;;;24.80;53.10;;;;;;5056609;28;20036;-74
2022/06/12 12:24:40;;;;;;;8.65;3.80;;;24.80;54.30;;;;;;5052211;28;20041;-72
2022/06/12 12:27:16;;;;;;;10.75;3.92;;;24.80;52.90;;;;;;5052705;28;20041;-73
2022/06/12 12:29:43;;;;;;;8.50;4.00;;;24.80;53.60;;;;;;5059195;28;20080;-73
2022/06/12 12:32:12;;;;;;;12.10;4.13;;;24.70;53.80;;;;;;5053856;28;20447;-73
2022/06/12 12:34:39;;;;;;;6.97;3.50;;;24.80;54.20;;;;;;5063170;28;20167;-73
2022/06/12 12:43:05;;;;;;;11.32;5.20;;;24.60;53.50;;;;;;5014722;28;20122;-75
2022/06/12 12:45:36;;;;;;;9.63;4.25;;;24.30;54.00;;;;;;5051858;28;20041;-74
2022/06/12 12:48:06;;;;;;;8.23;3.65;;;24.00;54.90;;;;;;5047105;28;20111;-74
2022/06/12 12:50:46;;;;;;;11.73;5.00;;;23.90;55.90;;;;;;5057005;28;20444;-74
2022/06/12 12:53:32;;;;;;;16.55;5.90;;;23.80;58.00;;;;;;5055004;28;20052;-73
2022/06/12 12:56:10;;;;;;;9.55;5.05;;;23.70;56.50;;;;;;5049530;28;20107;-75
2022/06/12 12:58:41;;;;;;;10.15;5.65;;;23.80;57.00;;;;;;5057567;28;20417;-75
2022/06/12 13:01:26;;;;;;;13.55;5.13;;;23.90;57.90;;;;;;5055353;28;20045;-73
2022/06/12 13:04:14;;;;;;;11.98;5.63;;;23.80;57.80;;;;;;5049792;28;20086;-73
2022/06/12 13:07:13;;;;;;;8.90;4.78;;;23.70;57.80;;;;;;5050718;28;20077;-74
2022/06/12 13:10:12;;;;;;;19.23;5.80;;;23.90;57.30;;;;;;5056248;28;20055;-73
2022/06/12 13:12:53;;;;;;;13.38;4.45;;;23.90;57.80;;;;;;5047836;28;20049;-73
2022/06/12 13:15:24;;;;;;;11.13;5.30;;;23.90;57.80;;;;;;5049544;28;20633;-74
2022/06/12 13:18:07;;;;;;;11.30;5.30;;;24.00;57.80;;;;;;5049094;28;20064;-74
2022/06/12 13:20:32;;;;;;;13.52;4.55;;;24.20;58.30;;;;;;5056308;28;20136;-74
2022/06/12 13:23:17;;;;;;;12.98;5.55;;;24.30;58.10;;;;;;5064130;28;20127;-74
2022/06/12 13:25:49;;;;;;;13.23;5.35;;;24.20;57.80;;;;;;5063356;28;20049;-73
2022/06/12 13:28:25;;;;;;;13.48;5.25;;;24.00;58.40;;;;;;5062486;28;20045;-74
2022/06/12 13:30:52;;;;;;;8.40;5.20;;;23.80;58.10;;;;;;5048611;28;20399;-74